Time;durP1;ratioP1;P1;durP2;ratioP2;P2;SDS_P1;SDS_P2;PMS_P1;PMS_P2;Temp;Humidity;BMP_temperature;BMP_pressure;BME280_temperature;BME280_humidity;BME280_pressure;Samples;Min_cycle;Max_cycle;Signal;HPM_P1;HPM_P2
2023/01/02 00:00:33;;;;;;;3.95;2.83;;;;;;;9.37;100.00;100909.84;4958292;28;20034;-82
2023/01/02 00:03:00;;;;;;;3.83;2.70;;;;;;;9.40;100.00;100907.16;4959210;28;20113;-81
2023/01/02 00:05:27;;;;;;;5.80;3.10;;;;;;;9.40;100.00;100904.53;4944480;28;20492;-81
2023/01/02 00:07:55;;;;;;;4.45;2.50;;;;;;;9.32;100.00;100901.97;4962921;28;20128;-81
2023/01/02 00:10:22;;;;;;;5.15;2.70;;;;;;;9.30;100.00;100892.34;4956761;28;20039;-82
2023/01/02 00:12:49;;;;;;;5.80;3.25;;;;;;;9.40;100.00;100885.19;4968605;28;20489;-81
2023/01/02 00:15:16;;;;;;;6.75;3.10;;;;;;;9.43;100.00;100888.69;4979673;28;20125;-82
2023/01/02 00:17:43;;;;;;;11.00;3.88;;;;;;;9.34;100.00;100890.56;4934881;29;20043;-82
2023/01/02 00:20:10;;;;;;;3.90;2.95;;;;;;;9.41;100.00;100887.81;4973004;28;20043;-82
2023/01/02 00:22:36;;;;;;;5.03;3.03;;;;;;;9.35;100.00;100887.03;4969831;28;20499;-82
2023/01/02 00:25:06;;;;;;;6.22;3.55;;;;;;;9.35;100.00;100876.50;4980466;28;20041;-83
2023/01/02 00:27:32;;;;;;;6.55;3.50;;;;;;;9.29;100.00;100872.16;4971112;28;20049;-83
2023/01/02 00:29:59;;;;;;;5.68;3.35;;;;;;;9.38;100.00;100873.81;4948110;29;20046;-82
2023/01/02 00:32:26;;;;;;;8.73;3.72;;;;;;;9.32;100.00;100869.47;4967888;28;20045;-82
2023/01/02 00:34:52;;;;;;;7.38;3.75;;;;;;;9.37;100.00;100870.31;4962954;28;20039;-81
2023/01/02 00:37:19;;;;;;;6.82;3.25;;;;;;;9.27;100.00;100871.31;4974802;28;20109;-82
2023/01/02 00:39:46;;;;;;;6.22;3.75;;;;;;;9.25;100.00;100870.47;4970384;28;20044;-81
2023/01/02 00:42:12;;;;;;;6.45;4.13;;;;;;;9.25;100.00;100866.06;4970940;28;20045;-82
2023/01/02 00:44:39;;;;;;;7.47;3.40;;;;;;;9.24;100.00;100871.31;4967135;28;20038;-82
2023/01/02 00:47:06;;;;;;;6.50;3.83;;;;;;;9.23;100.00;100872.22;4969747;28;20042;-82
2023/01/02 00:49:33;;;;;;;9.40;4.53;;;;;;;9.23;100.00;100869.59;4953147;28;20062;-82
2023/01/02 00:51:59;;;;;;;9.73;4.38;;;;;;;9.26;100.00;100864.28;4969026;28;20038;-82
2023/01/02 00:54:26;;;;;;;8.68;4.55;;;;;;;9.24;100.00;100861.66;4960534;28;20130;-82
2023/01/02 00:56:53;;;;;;;7.65;4.95;;;;;;;9.25;100.00;100865.19;4943658;28;20039;-82
2023/01/02 00:59:20;;;;;;;7.88;4.90;;;;;;;9.21;100.00;100853.78;4950748;28;20047;-83
2023/01/02 01:01:46;;;;;;;6.63;4.55;;;;;;;9.24;100.00;100850.22;4964826;28;20568;-82
2023/01/02 01:04:14;;;;;;;8.77;4.72;;;;;;;9.40;100.00;100848.28;4948436;28;20047;-82
2023/01/02 01:06:40;;;;;;;7.68;4.45;;;;;;;9.26;100.00;100845.84;4952186;29;20043;-82
2023/01/02 01:09:07;;;;;;;8.55;4.60;;;;;;;9.35;100.00;100845.72;4968046;28;20096;-81
2023/01/02 01:11:34;;;;;;;7.20;4.30;;;;;;;9.34;100.00;100822.03;4965562;28;20043;-82
2023/01/02 01:14:00;;;;;;;9.05;5.05;;;;;;;9.28;100.00;100822.97;4963393;28;20058;-82
2023/01/02 01:16:27;;;;;;;8.77;4.30;;;;;;;9.21;100.00;100822.16;4960625;28;20046;-82
2023/01/02 01:18:55;;;;;;;7.38;3.80;;;;;;;9.19;100.00;100818.66;4971189;28;20045;-83
2023/01/02 01:21:22;;;;;;;7.35;4.18;;;;;;;9.18;100.00;100813.44;4946213;28;20094;-82
2023/01/02 01:23:50;;;;;;;9.27;4.82;;;;;;;9.29;100.00;100814.16;4940991;28;20043;-82
2023/01/02 01:26:19;;;;;;;8.07;5.07;;;;;;;9.38;100.00;100808.75;4968833;28;20634;-82
2023/01/02 01:28:46;;;;;;;7.32;4.22;;;;;;;9.24;100.00;100821.22;4963206;28;20034;-83
2023/01/02 01:31:17;;;;;;;7.50;3.92;;;;;;;9.17;100.00;100822.22;4953550;28;20070;-82
2023/01/02 01:33:44;;;;;;;8.30;4.90;;;;;;;9.23;100.00;100812.47;4985101;28;20038;-81
2023/01/02 01:36:18;;;;;;;7.72;4.10;;;;;;;9.18;100.00;100811.66;4966670;28;20422;-80
2023/01/02 01:38:45;;;;;;;8.82;4.43;;;;;;;9.17;100.00;100804.66;4953382;28;20096;-82
2023/01/02 01:41:14;;;;;;;7.78;5.22;;;;;;;9.12;100.00;100809.09;4950011;28;20042;-81
2023/01/02 01:43:43;;;;;;;7.57;4.82;;;;;;;9.10;100.00;100807.38;4966628;28;20047;-81
2023/01/02 01:46:25;;;;;;;10.52;5.85;;;;;;;9.17;100.00;100804.66;4942924;28;20039;-81
2023/01/02 01:48:57;;;;;;;10.95;4.97;;;;;;;9.31;100.00;100801.81;4978680;28;20034;-81
2023/01/02 01:51:26;;;;;;;8.45;5.50;;;;;;;9.19;100.00;100797.59;4956700;28;20046;-82
2023/01/02 01:53:59;;;;;;;8.68;5.18;;;;;;;9.13;100.00;100808.19;4974528;28;20573;-81
2023/01/02 01:56:26;;;;;;;11.63;5.72;;;;;;;9.19;100.00;100796.72;4965927;28;20134;-82
2023/01/02 01:58:54;;;;;;;10.50;6.10;;;;;;;9.14;100.00;100791.50;4940148;28;20039;-81
2023/01/02 02:01:21;;;;;;;8.27;6.00;;;;;;;9.18;100.00;100795.84;4959653;28;20046;-82
2023/01/02 02:03:49;;;;;;;12.30;6.57;;;;;;;9.15;100.00;100787.97;4975907;28;20038;-81
2023/01/02 02:06:17;;;;;;;11.13;5.60;;;;;;;9.18;100.00;100793.22;4960079;28;20053;-82
2023/01/02 02:09:16;;;;;;;10.57;6.28;;;;;;;9.08;100.00;100794.22;4976074;28;20038;-82
2023/01/02 02:11:43;;;;;;;9.77;5.90;;;;;;;9.08;100.00;100788.94;4959702;28;20050;-82
2023/01/02 02:14:10;;;;;;;9.57;6.00;;;;;;;9.09;100.00;100792.47;4967823;28;20038;-81
2023/01/02 02:16:56;;;;;;;9.30;6.65;;;;;;;9.11;100.00;100782.75;4946688;28;20122;-81
2023/01/02 02:19:33;;;;;;;11.52;6.22;;;;;;;9.12;100.00;100774.81;4957914;28;20054;-81
2023/01/02 02:22:28;;;;;;;13.23;6.73;;;;;;;9.14;100.00;100766.91;5052673;23;20433;-82
2023/01/02 02:25:26;;;;;;;8.68;6.20;;;;;;;9.16;100.00;100763.34;4934322;28;20509;-82
2023/01/02 02:28:31;;;;;;;12.18;6.28;;;;;;;9.24;100.00;100752.69;4967561;28;20045;-82
2023/01/02 02:31:42;;;;;;;12.98;5.90;;;;;;;9.22;100.00;100738.66;4877416;29;20049;-81
2023/01/02 02:34:22;;;;;;;9.05;5.25;;;;;;;9.20;100.00;100729.91;4973987;28;20039;-82
2023/01/02 02:36:56;;;;;;;10.23;5.65;;;;;;;9.25;100.00;100722.84;4958267;28;20042;-83
2023/01/02 02:39:32;;;;;;;;;;;;;;;9.37;100.00;100712.09;4945884;28;20489;-81
2023/01/02 02:42:41;;;;;;;10.43;5.37;;;;;;;9.26;100.00;100692.94;4960935;28;19928;-82
2023/01/02 02:45:23;;;;;;;9.73;5.60;;;;;;;9.40;100.00;100687.44;4971833;28;20409;-82
2023/01/02 02:48:01;;;;;;;12.03;5.77;;;;;;;9.44;100.00;100668.91;4964513;28;20046;-82
2023/01/02 02:50:34;;;;;;;7.47;5.25;;;;;;;9.36;100.00;100681.34;4961608;28;20046;-82
2023/01/02 02:53:09;;;;;;;12.20;5.80;;;;;;;9.43;100.00;100667.19;4959232;28;20524;-81
2023/01/02 02:55:44;;;;;;;10.55;5.70;;;;;;;9.41;100.00;100665.44;4971523;28;20046;-81
2023/01/02 02:58:12;;;;;;;14.48;5.82;;;;;;;9.43;100.00;100669.81;4976861;28;20133;-81
2023/01/02 03:00:39;;;;;;;9.02;5.07;;;;;;;9.43;100.00;100653.13;4953015;28;20047;-81
2023/01/02 03:03:20;;;;;;;8.80;5.03;;;;;;;9.42;100.00;100652.25;5031519;23;20511;-82
2023/01/02 03:06:08;;;;;;;10.38;5.65;;;;;;;9.56;100.00;100652.88;4942537;29;20043;-82
2023/01/02 03:08:50;;;;;;;12.75;5.88;;;;;;;9.62;100.00;100653.69;4916981;28;20403;-82
2023/01/02 03:11:16;;;;;;;11.00;5.47;;;;;;;9.49;100.00;100656.50;4960784;28;20433;-82
2023/01/02 03:14:12;;;;;;;7.53;5.47;;;;;;;9.47;100.00;100662.72;4942114;28;20042;-83
2023/01/02 03:16:41;;;;;;;12.23;6.30;;;;;;;9.45;100.00;100646.94;4942934;28;20058;-82
2023/01/02 03:19:10;;;;;;;8.35;5.30;;;;;;;9.43;100.00;100637.31;4971134;28;20042;-82
2023/01/02 03:21:45;;;;;;;10.40;5.47;;;;;;;9.59;100.00;100650.22;4959326;28;20106;-82
2023/01/02 03:24:14;;;;;;;10.75;6.10;;;;;;;9.58;100.00;100643.22;4946821;29;20047;-82
2023/01/02 03:26:46;;;;;;;11.48;5.28;;;;;;;9.55;100.00;100643.25;4941863;28;20062;-83
2023/01/02 03:29:22;;;;;;;8.20;4.95;;;;;;;9.58;100.00;100640.56;4964707;28;20038;-82
2023/01/02 03:31:50;;;;;;;8.80;4.43;;;;;;;9.60;100.00;100645.81;4951979;28;20043;-83
2023/01/02 03:34:20;;;;;;;11.18;5.03;;;;;;;9.54;100.00;100638.00;4941587;28;20057;-82
2023/01/02 03:36:49;;;;;;;8.55;5.20;;;;;;;9.55;100.00;100643.25;4921095;29;20573;-83
2023/01/02 03:39:19;;;;;;;10.48;4.97;;;;;;;9.57;100.00;100635.28;4941013;28;20098;-83
2023/01/02 03:41:52;;;;;;;8.65;5.57;;;;;;;9.56;100.00;100637.06;4936648;28;20074;-83
2023/01/02 03:44:22;;;;;;;9.00;4.83;;;;;;;9.54;100.00;100617.75;4923849;29;20247;-83
2023/01/02 03:47:26;;;;;;;8.90;4.55;;;;;;;9.64;100.00;100636.06;4923987;28;20039;-82
2023/01/02 03:49:56;;;;;;;11.25;5.40;;;;;;;9.65;100.00;100636.03;4952648;28;20155;-83
2023/01/02 03:52:23;;;;;;;9.13;4.65;;;;;;;9.69;100.00;100628.97;4928608;28;20043;-84
2023/01/02 03:54:52;;;;;;;10.13;4.78;;;;;;;9.65;100.00;100625.47;4942993;29;20039;-84
2023/01/02 03:57:27;;;;;;;7.47;4.63;;;;;;;9.69;100.00;100614.00;4957340;28;20061;-83
2023/01/02 04:00:07;;;;;;;6.80;4.15;;;;;;;9.72;100.00;100620.97;4940181;29;20074;-83
2023/01/02 04:03:02;;;;;;;8.20;4.00;;;;;;;9.78;100.00;100619.13;4963599;28;20043;-84
2023/01/02 04:05:40;;;;;;;;;;;;;;;9.76;100.00;100606.84;4948705;28;20102;-84
2023/01/02 04:08:12;;;;;;;6.68;4.22;;;;;;;9.81;100.00;100602.34;4954901;28;19923;-84
2023/01/02 04:10:42;;;;;;;8.18;3.97;;;;;;;9.81;100.00;100605.84;4958756;28;20080;-84
2023/01/02 04:13:19;;;;;;;7.47;4.57;;;;;;;9.86;100.00;100606.66;4939828;28;20050;-84
2023/01/02 04:15:47;;;;;;;10.10;4.72;;;;;;;9.79;100.00;100593.59;4942999;28;20042;-84
2023/01/02 04:18:20;;;;;;;5.97;4.20;;;;;;;9.75;100.00;100600.72;4924727;29;20625;-84
2023/01/02 04:20:49;;;;;;;7.25;4.40;;;;;;;9.87;100.00;100595.19;4943248;29;20045;-83
2023/01/02 04:23:23;;;;;;;6.70;3.92;;;;;;;9.84;100.00;100597.03;4967361;28;20051;-82
2023/01/02 04:26:04;;;;;;;10.95;5.30;;;;;;;9.88;100.00;100590.78;4946366;29;20039;-83
2023/01/02 04:28:32;;;;;;;7.57;4.80;;;;;;;9.86;100.00;100592.59;4973101;28;20050;-83
2023/01/02 04:31:05;;;;;;;9.15;4.40;;;;;;;9.86;100.00;100592.59;4951681;28;20047;-84
2023/01/02 04:33:35;;;;;;;10.23;5.38;;;;;;;9.90;100.00;100596.91;4966059;28;20074;-84
2023/01/02 04:36:10;;;;;;;6.72;4.45;;;;;;;9.90;100.00;100596.03;4961654;29;20043;-84
2023/01/02 04:38:37;;;;;;;7.25;4.57;;;;;;;9.88;100.00;100593.41;4968598;28;20074;-83
2023/01/02 04:41:05;;;;;;;9.07;4.03;;;;;;;9.89;100.00;100579.31;4970928;28;20046;-83
2023/01/02 04:43:31;;;;;;;6.78;4.10;;;;;;;9.96;100.00;100569.53;4965917;28;20052;-84
2023/01/02 04:45:58;;;;;;;8.77;4.60;;;;;;;9.97;100.00;100572.13;4965427;28;20039;-85
2023/01/02 04:48:25;;;;;;;7.45;4.60;;;;;;;10.00;100.00;100564.13;4957424;28;20089;-84
2023/01/02 04:50:55;;;;;;;10.70;4.38;;;;;;;10.06;100.00;100557.88;4941714;28;20094;-83
2023/01/02 04:53:21;;;;;;;7.43;4.43;;;;;;;10.10;100.00;100563.09;4928871;29;20451;-84
2023/01/02 04:55:54;;;;;;;8.60;4.70;;;;;;;10.08;100.00;100571.91;4950839;29;20450;-84
2023/01/02 04:58:20;;;;;;;5.72;4.22;;;;;;;10.19;100.00;100566.44;4943084;28;20093;-84
2023/01/02 05:00:47;;;;;;;9.45;5.20;;;;;;;10.23;100.00;100569.00;4926866;29;20043;-84
2023/01/02 05:03:14;;;;;;;7.85;5.03;;;;;;;10.19;100.00;100569.09;4951691;29;20047;-85
2023/01/02 05:05:41;;;;;;;7.07;4.20;;;;;;;10.25;100.00;100561.03;4950760;28;20039;-85
2023/01/02 05:08:07;;;;;;;6.65;4.35;;;;;;;10.25;100.00;100559.28;4953447;28;20043;-84
2023/01/02 05:10:41;;;;;;;8.52;4.10;;;;;;;10.43;100.00;100552.75;4958458;28;20129;-84
2023/01/02 05:13:08;;;;;;;9.25;4.63;;;;;;;10.35;100.00;100562.63;4954900;28;20042;-83
2023/01/02 05:15:35;;;;;;;7.88;3.83;;;;;;;10.38;100.00;100558.13;4941802;28;20054;-83
2023/01/02 05:18:02;;;;;;;8.45;4.50;;;;;;;10.50;100.00;100559.63;4945800;28;20047;-84
2023/01/02 05:20:28;;;;;;;8.45;4.60;;;;;;;10.47;100.00;100557.06;4938560;29;20048;-83
2023/01/02 05:25:42;;;;;;;12.50;4.95;;;;;;;10.51;100.00;100565.78;4951763;28;20070;-83
2023/01/02 05:28:14;;;;;;;5.32;3.85;;;;;;;10.54;100.00;100568.38;4955068;28;20137;-83
2023/01/02 05:30:41;;;;;;;7.72;4.10;;;;;;;10.57;100.00;100561.22;4952537;28;20043;-84
2023/01/02 05:33:08;;;;;;;7.40;4.43;;;;;;;10.59;100.00;100555.91;4953198;28;20046;-82
2023/01/02 05:35:34;;;;;;;9.52;4.57;;;;;;;10.68;100.00;100556.59;4925940;29;20054;-83
2023/01/02 05:38:01;;;;;;;7.97;4.60;;;;;;;10.82;100.00;100552.75;4930704;28;20065;-82
2023/01/02 05:40:28;;;;;;;6.40;4.18;;;;;;;10.77;100.00;100542.31;4957184;28;20093;-83
2023/01/02 05:42:54;;;;;;;5.60;4.20;;;;;;;10.71;100.00;100548.59;4957472;28;20049;-84
2023/01/02 05:45:21;;;;;;;8.90;4.63;;;;;;;10.78;100.00;100543.19;4946356;28;20039;-83
2023/01/02 05:47:48;;;;;;;10.98;4.28;;;;;;;10.80;100.00;100549.28;4930381;28;20039;-84
2023/01/02 05:50:14;;;;;;;6.55;4.03;;;;;;;10.84;100.00;100546.53;4937479;29;20058;-84
2023/01/02 05:52:41;;;;;;;6.40;4.45;;;;;;;10.95;100.00;100548.94;4924371;29;20054;-84
2023/01/02 05:55:14;;;;;;;5.07;3.60;;;;;;;10.97;100.00;100547.13;4937978;29;20076;-83
2023/01/02 05:57:41;;;;;;;6.63;3.97;;;;;;;10.96;100.00;100551.53;4949842;28;20094;-81
2023/01/02 06:00:08;;;;;;;6.05;4.22;;;;;;;11.05;100.00;100545.16;4943586;28;20069;-83
2023/01/02 06:02:35;;;;;;;8.90;4.05;;;;;;;11.13;100.00;100544.97;4975650;28;20047;-82
2023/01/02 06:05:01;;;;;;;8.55;3.83;;;;;;;11.20;100.00;100550.06;4958185;28;20058;-83
2023/01/02 06:07:28;;;;;;;6.18;3.88;;;;;;;11.18;100.00;100546.59;4944695;28;20044;-83
2023/01/02 06:09:55;;;;;;;6.40;4.32;;;;;;;11.22;100.00;100553.53;4953720;29;20050;-82
2023/01/02 06:12:21;;;;;;;10.70;4.05;;;;;;;11.15;100.00;100549.31;4956507;28;20047;-83
2023/01/02 06:14:48;;;;;;;6.25;3.72;;;;;;;11.14;100.00;100563.44;4959153;28;20038;-82
2023/01/02 06:17:15;;;;;;;4.80;3.88;;;;;;;11.21;100.00;100565.03;4973816;28;20462;-82
2023/01/02 06:19:41;;;;;;;5.55;3.05;;;;;;;11.29;100.00;100543.69;4935493;29;20050;-82
2023/01/02 06:22:14;;;;;;;6.47;3.80;;;;;;;11.32;100.00;100548.88;4928056;29;20043;-83
2023/01/02 06:24:40;;;;;;;6.38;3.85;;;;;;;11.40;100.00;100543.41;4960177;28;20043;-83
2023/01/02 06:27:07;;;;;;;6.18;3.42;;;;;;;11.34;100.00;100540.91;4926707;29;20047;-83
2023/01/02 06:29:34;;;;;;;4.30;3.00;;;;;;;11.49;100.00;100535.22;4936381;28;20050;-84
2023/01/02 06:32:00;;;;;;;8.90;4.03;;;;;;;11.38;100.00;100527.56;4942798;28;20079;-84
2023/01/02 06:34:27;;;;;;;5.97;4.03;;;;;;;11.45;100.00;100529.16;4917514;29;20054;-85
2023/01/02 06:36:54;;;;;;;4.40;3.10;;;;;;;11.48;100.00;100517.63;4947071;29;20035;-84
2023/01/02 06:39:21;;;;;;;5.65;3.17;;;;;;;11.42;100.00;100529.22;4921367;29;20082;-83
2023/01/02 06:41:47;;;;;;;7.60;4.20;;;;;;;11.47;100.00;100529.13;4932932;28;20046;-84
2023/01/02 06:44:14;;;;;;;5.20;3.50;;;;;;;11.41;100.00;100535.44;4940566;28;20050;-85
2023/01/02 06:46:41;;;;;;;6.30;3.72;;;;;;;11.59;100.00;100531.41;4947703;28;20035;-85
2023/01/02 06:49:07;;;;;;;6.88;3.65;;;;;;;11.47;100.00;100532.63;4940422;28;20083;-85
2023/01/02 06:51:34;;;;;;;6.82;3.75;;;;;;;11.67;100.00;100533.88;4934737;29;20123;-83
2023/01/02 06:54:00;;;;;;;6.03;3.75;;;;;;;11.64;100.00;100534.81;4973495;28;20047;-82
2023/01/02 06:56:28;;;;;;;5.85;3.38;;;;;;;11.75;99.32;100534.53;4947483;28;20046;-82
2023/01/02 06:58:54;;;;;;;7.53;3.15;;;;;;;11.74;99.63;100549.53;4946404;28;20070;-83
2023/01/02 07:01:22;;;;;;;4.13;3.15;;;;;;;11.62;100.00;100557.81;4944800;28;20046;-83
2023/01/02 07:03:49;;;;;;;7.30;3.65;;;;;;;11.60;100.00;100546.38;4934220;28;20039;-83
2023/01/02 07:06:18;;;;;;;6.15;3.58;;;;;;;11.69;100.00;100547.94;4934659;29;20454;-83
2023/01/02 07:08:45;;;;;;;6.47;3.88;;;;;;;11.68;100.00;100544.41;4957443;28;20057;-83
2023/01/02 07:11:20;;;;;;;4.85;3.47;;;;;;;11.86;97.91;100555.47;4936627;28;20058;-83
2023/01/02 07:13:48;;;;;;;6.68;3.97;;;;;;;11.85;98.24;100554.56;4917781;29;20055;-83
2023/01/02 07:16:16;;;;;;;5.75;3.35;;;;;;;11.81;99.28;100552.94;4940077;28;20118;-83
2023/01/02 07:18:46;;;;;;;5.13;3.33;;;;;;;11.76;99.61;100554.78;4923451;29;20044;-83
2023/01/02 07:21:14;;;;;;;5.22;3.50;;;;;;;11.82;98.87;100554.66;4956519;28;20051;-80
2023/01/02 07:23:41;;;;;;;6.38;3.67;;;;;;;11.73;99.64;100568.97;4940762;28;20069;-83
2023/01/02 07:26:08;;;;;;;6.35;3.65;;;;;;;11.78;99.34;100561.81;4942002;28;20093;-83
2023/01/02 07:28:36;;;;;;;6.22;3.05;;;;;;;11.89;97.65;100564.19;4923492;29;20082;-84
2023/01/02 07:31:09;;;;;;;7.65;4.28;;;;;;;11.88;99.50;100565.09;4930505;28;20161;-83
2023/01/02 07:33:36;;;;;;;7.78;3.33;;;;;;;11.78;100.00;100574.16;4947921;28;20130;-84
2023/01/02 07:36:09;;;;;;;6.72;3.95;;;;;;;11.78;100.00;100575.03;4941331;29;20062;-82
2023/01/02 07:38:37;;;;;;;7.50;3.40;;;;;;;11.87;100.00;100575.72;4960378;28;20198;-83
2023/01/02 07:41:14;;;;;;;4.32;3.58;;;;;;;11.97;98.51;100574.56;4939653;29;20051;-84
2023/01/02 07:43:42;;;;;;;5.53;3.17;;;;;;;11.93;97.90;100563.16;4949691;28;20446;-84
2023/01/02 07:46:11;;;;;;;8.55;3.55;;;;;;;11.86;99.06;100560.75;4940791;29;20043;-83
2023/01/02 07:48:38;;;;;;;4.22;2.78;;;;;;;11.93;98.19;100557.00;4925380;29;20135;-83
2023/01/02 07:51:06;;;;;;;7.20;3.95;;;;;;;11.98;97.66;100561.28;4943446;29;20043;-83
2023/01/02 07:53:33;;;;;;;4.85;3.50;;;;;;;12.03;96.46;100559.38;4961293;29;20050;-83
2023/01/02 07:56:01;;;;;;;6.97;3.40;;;;;;;12.02;96.87;100555.00;4944592;29;20055;-83
2023/01/02 07:58:28;;;;;;;8.27;3.60;;;;;;;12.10;95.58;100568.88;4929527;29;20075;-82
2023/01/02 08:00:54;;;;;;;4.40;2.97;;;;;;;12.21;93.29;100568.59;4944633;29;20047;-83
2023/01/02 08:03:33;;;;;;;5.53;3.38;;;;;;;12.08;95.69;100562.75;4941042;29;20050;-84
2023/01/02 08:06:05;;;;;;;6.53;3.10;;;;;;;12.09;96.10;100558.31;4936243;29;20039;-84
2023/01/02 08:08:32;;;;;;;5.43;3.40;;;;;;;12.09;95.66;100563.63;4952396;29;20047;-83
2023/01/02 08:11:03;;;;;;;6.95;3.05;;;;;;;12.09;96.40;100555.66;4949470;28;20047;-82
2023/01/02 08:13:29;;;;;;;7.93;3.30;;;;;;;12.32;92.23;100547.06;4972116;28;20050;-83
2023/01/02 08:15:56;;;;;;;6.18;3.17;;;;;;;12.27;93.22;100552.50;4931593;28;20043;-84
2023/01/02 08:18:23;;;;;;;7.72;3.47;;;;;;;12.19;94.30;100558.91;4940470;28;20074;-83
2023/01/02 08:20:49;;;;;;;7.80;3.58;;;;;;;12.36;92.24;100552.25;4964858;28;20048;-84
2023/01/02 08:23:16;;;;;;;5.65;3.45;;;;;;;12.36;92.32;100557.53;4933138;29;20050;-83
2023/01/02 08:25:43;;;;;;;5.38;3.35;;;;;;;12.31;93.29;100562.09;4957694;28;20035;-83
2023/01/02 08:28:09;;;;;;;5.65;3.05;;;;;;;12.36;92.36;100548.72;4943872;28;20049;-81
2023/01/02 08:30:39;;;;;;;6.30;3.67;;;;;;;12.38;92.00;100554.84;4943174;28;20043;-83
2023/01/02 08:33:05;;;;;;;9.10;3.78;;;;;;;12.37;92.01;100548.69;4940985;28;20049;-84
2023/01/02 08:35:32;;;;;;;7.93;3.13;;;;;;;12.45;91.91;100551.09;4949372;28;20110;-83
2023/01/02 08:38:04;;;;;;;6.47;2.92;;;;;;;12.58;90.60;100567.50;4940671;29;20148;-83
2023/01/02 08:40:31;;;;;;;9.57;3.33;;;;;;;12.58;90.44;100562.19;4957212;28;20051;-81
2023/01/02 08:42:58;;;;;;;7.07;3.35;;;;;;;12.45;91.97;100567.00;4950870;28;20035;-80
2023/01/02 08:45:24;;;;;;;6.70;3.25;;;;;;;12.58;91.61;100567.50;4958815;28;20058;-83
2023/01/02 08:47:51;;;;;;;6.70;3.65;;;;;;;12.56;90.62;100564.88;4923676;29;20039;-84
2023/01/02 08:50:18;;;;;;;7.55;3.50;;;;;;;12.62;90.27;100561.19;4960692;28;20074;-84
2023/01/02 08:52:45;;;;;;;4.43;3.00;;;;;;;12.64;89.22;100568.19;4943861;28;20043;-84
2023/01/02 08:55:12;;;;;;;4.80;3.10;;;;;;;12.77;87.39;100567.78;4969405;23;20092;-89
2023/01/02 08:57:39;;;;;;;5.07;3.22;;;;;;;12.73;89.14;100560.84;4942251;28;20039;-85
2023/01/02 09:00:06;;;;;;;5.53;3.10;;;;;;;12.72;88.86;100569.72;4944647;28;20067;-85
2023/01/02 09:02:32;;;;;;;6.40;3.75;;;;;;;12.78;88.15;100566.88;4954786;28;20511;-86
2023/01/02 09:04:59;;;;;;;6.13;3.22;;;;;;;12.83;87.63;100573.78;4959765;28;20486;-85
2023/01/02 09:07:26;;;;;;;6.50;3.08;;;;;;;12.80;88.45;100573.00;4940200;28;20547;-88
2023/01/02 09:09:54;;;;;;;7.50;3.08;;;;;;;12.77;88.65;100571.31;4932048;28;20569;-83
2023/01/02 09:12:20;;;;;;;6.90;3.00;;;;;;;12.88;86.52;100571.00;4972160;28;20070;-86
2023/01/02 09:14:47;;;;;;;5.78;3.00;;;;;;;13.03;85.08;100575.81;4958892;28;20046;-85
2023/01/02 09:17:16;;;;;;;5.82;3.15;;;;;;;13.04;85.87;100566.06;4942407;28;20784;-86
2023/01/02 09:19:49;;;;;;;6.10;3.10;;;;;;;13.08;87.24;100578.31;4954217;28;20097;-85
2023/01/02 09:22:23;;;;;;;5.07;3.35;;;;;;;13.05;86.86;100573.97;4933662;28;20054;-85
2023/01/02 09:24:53;;;;;;;6.22;3.25;;;;;;;13.10;86.45;100576.47;4936474;29;20068;-85
2023/01/02 09:27:32;;;;;;;5.28;3.53;;;;;;;13.13;86.45;100568.44;4962551;28;20047;-85
2023/01/02 09:30:00;;;;;;;4.70;3.13;;;;;;;13.28;84.26;100572.38;4948611;29;20047;-86
2023/01/02 09:32:27;;;;;;;5.30;2.65;;;;;;;13.25;84.18;100576.00;4948110;28;20074;-87
2023/01/02 09:34:54;;;;;;;4.65;2.88;;;;;;;13.16;84.91;100574.50;4939573;28;20043;-85
2023/01/02 09:37:27;;;;;;;7.20;3.67;;;;;;;13.34;83.94;100575.69;4938916;29;20044;-85
2023/01/02 09:39:58;;;;;;;7.53;3.13;;;;;;;13.28;85.74;100567.94;4930660;29;20052;-85
2023/01/02 09:42:25;;;;;;;5.82;2.72;;;;;;;13.25;84.96;100568.03;4970498;28;20678;-87
2023/01/02 09:45:00;;;;;;;9.18;2.90;;;;;;;13.29;85.24;100575.00;4959014;28;20049;-85
2023/01/02 09:47:35;;;;;;;4.03;2.42;;;;;;;13.28;85.51;100572.38;4941968;28;20036;-85
2023/01/02 09:50:29;;;;;;;5.80;3.25;;;;;;;13.29;85.31;100563.53;4940925;29;20047;-85
2023/01/02 09:52:59;;;;;;;5.30;2.40;;;;;;;13.38;81.52;100565.88;4933801;29;20130;-86
2023/01/02 09:55:33;;;;;;;5.63;2.70;;;;;;;13.38;84.30;100556.13;4939317;28;20401;-85
2023/01/02 09:58:10;;;;;;;5.05;2.53;;;;;;;13.40;83.65;100548.97;4944765;29;20114;-86
2023/01/02 10:00:38;;;;;;;4.82;2.90;;;;;;;13.50;82.51;100538.91;4955405;28;20043;-85
2023/01/02 10:04:00;;;;;;;9.10;3.17;;;;;;;13.65;80.73;100533.06;4954860;29;20042;-84
2023/01/02 10:07:08;;;;;;;7.68;2.50;;;;;;;13.74;78.97;100531.88;4914318;29;20048;-83
2023/01/02 10:09:44;;;;;;;6.68;2.67;;;;;;;13.70;79.80;100528.44;4952525;28;20051;-85
2023/01/02 10:12:19;;;;;;;4.95;2.90;;;;;;;13.73;80.41;100528.34;4937766;29;20565;-84
2023/01/02 10:15:05;;;;;;;4.55;2.58;;;;;;;13.78;78.13;100523.72;4932148;29;20043;-85
2023/01/02 10:17:45;;;;;;;7.53;2.88;;;;;;;13.82;78.91;100535.13;4937338;29;20045;-84
2023/01/02 10:20:26;;;;;;;5.90;2.70;;;;;;;13.83;78.30;100528.03;4918100;29;20210;-84
2023/01/02 10:23:05;;;;;;;3.92;2.42;;;;;;;13.91;75.30;100529.47;4935407;29;20043;-84
2023/01/02 10:25:41;;;;;;;6.97;3.28;;;;;;;13.92;76.10;100531.22;4956711;28;20047;-86
2023/01/02 10:28:17;;;;;;;8.77;3.28;;;;;;;13.90;76.56;100524.22;4924496;29;20495;-85
2023/01/02 10:30:59;;;;;;;5.35;2.45;;;;;;;13.85;76.51;100519.06;4953941;29;20598;-83
2023/01/02 10:33:55;;;;;;;6.78;3.22;;;;;;;13.88;77.87;100516.31;4929754;28;20097;-85
2023/01/02 10:36:30;;;;;;;6.50;2.30;;;;;;;13.95;76.70;100509.84;4947786;28;20042;-85
2023/01/02 10:39:02;;;;;;;4.65;2.72;;;;;;;14.04;75.32;100506.88;4938284;29;20058;-85
2023/01/02 10:41:35;;;;;;;5.63;2.63;;;;;;;14.09;74.28;100504.91;4936804;29;20111;-84
2023/01/02 10:44:32;;;;;;;6.28;3.20;;;;;;;14.06;73.95;100497.03;4930430;29;20059;-84
2023/01/02 10:47:33;;;;;;;5.40;2.50;;;;;;;14.18;74.47;100495.72;4919042;29;20047;-85
2023/01/02 10:50:10;;;;;;;6.95;2.60;;;;;;;14.12;72.90;100497.72;4918701;29;20055;-83
2023/01/02 10:53:17;;;;;;;5.60;2.78;;;;;;;14.15;73.48;100490.53;4959017;28;20062;-87
2023/01/02 10:55:51;;;;;;;4.05;2.40;;;;;;;14.15;74.02;100489.66;4920059;29;20094;-85
2023/01/02 10:58:27;;;;;;;5.43;2.30;;;;;;;14.16;72.61;100504.66;4910905;29;20075;-87
2023/01/02 11:01:12;;;;;;;7.18;2.50;;;;;;;14.32;70.54;100493.41;4934202;29;20044;-85
2023/01/02 11:03:54;;;;;;;9.18;2.55;;;;;;;14.42;69.59;100491.25;4953327;28;20051;-86
2023/01/02 11:06:30;;;;;;;8.18;2.55;;;;;;;14.42;71.24;100490.38;4960121;28;20063;-85
2023/01/02 11:09:28;;;;;;;5.97;2.30;;;;;;;14.48;69.92;100499.03;4935235;29;20043;-85
2023/01/02 11:12:11;;;;;;;6.25;3.13;;;;;;;14.56;68.86;100496.94;4911058;29;20036;-87
2023/01/02 11:14:49;;;;;;;4.68;2.22;;;;;;;14.61;68.06;100499.38;4942852;28;20046;-85
2023/01/02 11:17:22;;;;;;;5.93;2.33;;;;;;;14.62;68.96;100493.13;4936378;29;20047;-85
2023/01/02 11:20:00;;;;;;;5.22;2.72;;;;;;;14.61;69.57;100484.31;4922488;29;20141;-86
2023/01/02 11:22:40;;;;;;;7.57;2.80;;;;;;;14.69;68.54;100488.44;4936815;29;20656;-82
2023/01/02 11:25:22;;;;;;;5.93;2.38;;;;;;;14.59;69.80;100491.47;4936363;29;20702;-83
2023/01/02 11:27:56;;;;;;;7.07;2.83;;;;;;;14.62;69.63;100493.13;4948682;28;20062;-82
2023/01/02 11:30:42;;;;;;;5.28;2.70;;;;;;;14.50;69.61;100497.16;4952950;28;20814;-82
2023/01/02 11:33:27;;;;;;;6.50;2.60;;;;;;;14.57;69.83;100501.31;4937444;29;20046;-84
2023/01/02 11:35:56;;;;;;;7.78;2.40;;;;;;;14.63;69.34;100506.41;4938204;28;20794;-81
2023/01/02 11:38:26;;;;;;;7.00;2.92;;;;;;;14.69;68.23;100502.63;4920886;28;20047;-82
2023/01/02 11:40:59;;;;;;;5.22;2.08;;;;;;;14.71;69.03;100500.75;4934821;28;20062;-82
2023/01/02 11:43:48;;;;;;;3.67;2.20;;;;;;;14.66;69.27;100517.84;4961887;28;20064;-82
2023/01/02 11:46:26;;;;;;;5.93;2.42;;;;;;;14.75;69.19;100513.00;4966313;28;20040;-82